Map

Track Data

SID SEASON NUMBER BASIN SUBBASIN NAME ISO_TIME NATURE LAT LON WMO_WIND WMO_PRES WMO_AGENCY TRACK_TYPE DIST2LAND LANDFALL IFLAG USA_AGENCY USA_ATCF_ID USA_LAT USA_LON USA_RECORD USA_STATUS USA_WIND USA_PRES USA_SSHS USA_R34_NE USA_R34_SE USA_R34_SW USA_R34_NW USA_R50_NE USA_R50_SE USA_R50_SW USA_R50_NW USA_R64_NE USA_R64_SE USA_R64_SW USA_R64_NW USA_POCI USA_ROCI USA_RMW USA_EYE TOKYO_LAT TOKYO_LON TOKYO_GRADE TOKYO_WIND TOKYO_PRES TOKYO_R50_DIR TOKYO_R50_LONG TOKYO_R50_SHORT TOKYO_R30_DIR TOKYO_R30_LONG TOKYO_R30_SHORT TOKYO_LAND CMA_LAT CMA_LON CMA_CAT CMA_WIND CMA_PRES HKO_LAT HKO_LON HKO_CAT HKO_WIND HKO_PRES NEWDELHI_LAT NEWDELHI_LON NEWDELHI_GRADE NEWDELHI_WIND NEWDELHI_PRES NEWDELHI_CI NEWDELHI_DP NEWDELHI_POCI REUNION_LAT REUNION_LON REUNION_TYPE REUNION_WIND REUNION_PRES REUNION_TNUM REUNION_CI REUNION_RMW REUNION_R34_NE REUNION_R34_SE REUNION_R34_SW REUNION_R34_NW REUNION_R50_NE REUNION_R50_SE REUNION_R50_SW REUNION_R50_NW REUNION_R64_NE REUNION_R64_SE REUNION_R64_SW REUNION_R64_NW BOM_LAT BOM_LON BOM_TYPE BOM_WIND BOM_PRES BOM_TNUM BOM_CI BOM_RMW BOM_R34_NE BOM_R34_SE BOM_R34_SW BOM_R34_NW BOM_R50_NE BOM_R50_SE BOM_R50_SW BOM_R50_NW BOM_R64_NE BOM_R64_SE BOM_R64_SW BOM_R64_NW BOM_ROCI BOM_POCI BOM_EYE BOM_POS_METHOD BOM_PRES_METHOD NADI_LAT NADI_LON NADI_CAT NADI_WIND NADI_PRES WELLINGTON_LAT WELLINGTON_LON WELLINGTON_WIND WELLINGTON_PRES DS824_LAT DS824_LON DS824_STAGE DS824_WIND DS824_PRES TD9636_LAT TD9636_LON TD9636_STAGE TD9636_WIND TD9636_PRES TD9635_LAT TD9635_LON TD9635_WIND TD9635_PRES TD9635_ROCI NEUMANN_LAT NEUMANN_LON NEUMANN_CLASS NEUMANN_WIND NEUMANN_PRES MLC_LAT MLC_LON MLC_CLASS MLC_WIND MLC_PRES USA_GUST BOM_GUST BOM_GUST_PER REUNION_GUST REUNION_GUST_PER USA_SEAHGT USA_SEARAD_NE USA_SEARAD_SE USA_SEARAD_SW USA_SEARAD_NW STORM_SPEED STORM_DIR
1982207N09243 1982 52 EP MM GILMA 1982-07-26 06:00:00 TS 9.40000 -117.300 30 hurdat_epa main 1699 1699 O_________O___ hurdat_epa EP071982 9.40000 -117.300 TD 30 -1 9.40000 -117.300 1 30 7 284
1982207N09243 1982 52 EP MM GILMA 1982-07-26 09:00:00 TS 9.48316 -117.651 main 1709 1709 P_________P___ EP071982 9.48007 -117.650 TD 30 -1 9.49244 -117.653 1 30 7 286
1982207N09243 1982 52 EP MM GILMA 1982-07-26 12:00:00 TS 9.60000 -118.000 30 hurdat_epa main 1714 1710 O_________O___ hurdat_epa EP071982 9.60000 -118.000 TD 30 -1 9.60000 -118.000 1 30 7 293
1982207N09243 1982 52 EP MM GILMA 1982-07-26 15:00:00 TS 9.77291 -118.347 main 1711 1711 P_________P___ EP071982 9.78497 -118.350 TD 32 -1 9.73676 -118.337 1 33 8 299
1982207N09243 1982 52 EP MM GILMA 1982-07-26 18:00:00 TS 9.97777 -118.693 35 hurdat_epa main 1714 1711 O_________P___ hurdat_epa EP071982 10.0000 -118.700 TS 35 0 9.91109 -118.673 1 37 8 300
1982207N09243 1982 52 EP MM GILMA 1982-07-26 21:00:00 TS 10.1656 -119.043 main 1713 1712 P_________P___ EP071982 10.1775 -119.050 TS 40 0 10.1299 -119.023 1 41 8 301
1982207N09243 1982 52 EP MM GILMA 1982-07-27 00:00:00 TS 10.4000 -119.400 45 hurdat_epa main 1718 1710 O_________O___ hurdat_epa EP071982 10.4000 -119.400 TS 45 0 10.4000 -119.400 2 45 9 309
1982207N09243 1982 52 EP MM GILMA 1982-07-27 03:00:00 TS 10.7220 -119.737 main 1710 1700 P_________P___ EP071982 10.7198 -119.720 TS 47 0 10.7284 -119.789 2 47 10 314
1982207N09243 1982 52 EP MM GILMA 1982-07-27 06:00:00 TS 11.1011 -120.128 50 hurdat_epa main 1700 1694 O_________P___ hurdat_epa EP071982 11.1000 -120.100 TS 50 0 11.1044 -120.210 2 50 12 312
1982207N09243 1982 52 EP MM GILMA 1982-07-27 09:00:00 TS 11.4951 -120.623 main 1699 1697 P_________P___ EP071982 11.4925 -120.605 TS 52 0 11.5032 -120.677 2 52 13 307
1982207N09243 1982 52 EP MM GILMA 1982-07-27 12:00:00 TS 11.9000 -121.200 55 hurdat_epa main 1709 1707 O_________O___ hurdat_epa EP071982 11.9000 -121.200 TS 55 0 11.9000 -121.200 2 55 14 305
1982207N09243 1982 52 EP MM GILMA 1982-07-27 15:00:00 TS 12.3087 -121.820 main 1721 1719 P_________P___ EP071982 12.3149 -121.835 TS 57 0 12.2899 -121.773 2 56 15 302
1982207N09243 1982 52 EP MM GILMA 1982-07-27 18:00:00 TS 12.6920 -122.476 60 hurdat_epa main 1730 1728 O_________P___ hurdat_epa EP071982 12.7000 -122.500 TS 60 0 12.6679 -122.404 2 57 15 299
1982207N09243 1982 52 EP MM GILMA 1982-07-27 21:00:00 TS 13.0253 -123.122 main 1745 1743 P_________P___ EP071982 13.0297 -123.135 TS 60 0 13.0120 -123.083 2 58 14 295
1982207N09243 1982 52 EP MM GILMA 1982-07-28 00:00:00 TS 13.3000 -123.800 60 hurdat_epa main 1769 1769 O_________O___ hurdat_epa EP071982 13.3000 -123.800 TS 60 0 13.3000 -123.800 2 60 14 290
1982207N09243 1982 52 EP MM GILMA 1982-07-28 03:00:00 TS 13.5147 -124.521 main 1805 1805 P_________P___ EP071982 13.5148 -124.520 TS 62 0 13.5144 -124.524 2 62 15 285
1982207N09243 1982 52 EP MM GILMA 1982-07-28 06:00:00 TS 13.7000 -125.300 65 hurdat_epa main 1850 1850 O_________O___ hurdat_epa EP071982 13.7000 -125.300 HU 65 1 13.7000 -125.300 3 65 16 284
1982207N09243 1982 52 EP MM GILMA 1982-07-28 09:00:00 TS 13.8936 -126.135 main 1898 1898 P_________P___ EP071982 13.8924 -126.135 HU 67 1 13.8974 -126.134 3 67 17 284
1982207N09243 1982 52 EP MM GILMA 1982-07-28 12:00:00 TS 14.1000 -127.000 70 hurdat_epa main 1956 1956 O_________O___ hurdat_epa EP071982 14.1000 -127.000 HU 70 1 14.1000 -127.000 4 70 17 285
1982207N09243 1982 52 EP MM GILMA 1982-07-28 15:00:00 TS 14.3451 -127.847 main 1999 1997 P_________P___ EP071982 14.3497 -127.850 HU 70 1 14.3313 -127.840 4 70 17 287
1982207N09243 1982 52 EP MM GILMA 1982-07-28 18:00:00 TS 14.5931 -128.695 70 hurdat_epa main 2036 2036 O_________P___ hurdat_epa EP071982 14.6000 -128.700 HU 70 1 14.5724 -128.679 4 70 17 286
1982207N09243 1982 52 EP MM GILMA 1982-07-28 21:00:00 TS 14.8171 -129.534 main 2078 2078 P_________P___ EP071982 14.8220 -129.535 HU 70 1 14.8024 -129.529 4 70 17 284
1982207N09243 1982 52 EP MM GILMA 1982-07-29 00:00:00 TS 15.0000 -130.400 70 hurdat_epa main 2131 2131 O_________O___ hurdat_epa EP071982 15.0000 -130.400 HU 70 1 15.0000 -130.400 4 70 18 280
1982207N09243 1982 52 EP MM GILMA 1982-07-29 03:00:00 TS 15.1180 -131.336 main 2193 2193 P_________P___ EP071982 15.1149 -131.343 HU 85 2 15.1274 -131.317 4 77 18 276
1982207N09243 1982 52 EP MM GILMA 1982-07-29 06:00:00 TS 15.2055 -132.288 100 hurdat_epa main 2266 2266 O_________P___ hurdat_epa EP071982 15.2000 -132.300 HU 100 3 15.2221 -132.251 4 85 18 276
1982207N09243 1982 52 EP MM GILMA 1982-07-29 09:00:00 TS 15.2955 -133.208 main 2332 2241 P_________P___ EP071982 15.2921 -133.215 HU 100 3 15.3056 -133.185 4 92 18 276
1982207N09243 1982 52 EP MM GILMA 1982-07-29 12:00:00 TS 15.4000 -134.100 100 hurdat_epa main 2241 2156 O_________O___ hurdat_epa EP071982 15.4000 -134.100 HU 100 3 15.4000 -134.100 4 100 17 278
1982207N09243 1982 52 EP MM GILMA 1982-07-29 15:00:00 TS 15.5381 -134.961 main 2145 2057 P_________P___ EP071982 15.5421 -134.958 HU 105 3 15.5261 -134.972 4 101 17 280
1982207N09243 1982 52 EP MM GILMA 1982-07-29 18:00:00 TS 15.6920 -135.806 110 hurdat_epa main 2057 1971 O_________P___ hurdat_epa EP071982 15.7000 -135.800 HU 110 3 15.6682 -135.823 4 102 17 280
1982207N09243 1982 52 EP MM GILMA 1982-07-29 21:00:00 TS 15.8325 -136.653 main 1961 1872 P_________P___ EP071982 15.8347 -136.650 HU 107 3 15.8262 -136.663 4 103 17 281
1982207N09243 1982 52 EP MM GILMA 1982-07-30 00:00:00 TS 16.0000 -137.500 105 hurdat_epa main 1872 1784 O_________O___ hurdat_epa EP071982 16.0000 -137.500 HU 105 3 16.0000 -137.500 4 105 17 284
1982207N09243 1982 52 EP MM GILMA 1982-07-30 03:00:00 TS 16.2373 -138.343 main 1784 1693 P_________P___ EP071982 16.2497 -138.350 HU 100 3 16.2000 -138.322 4 97 17 286
1982207N09243 1982 52 EP MM GILMA 1982-07-30 06:00:00 TS 16.4781 -139.187 95 hurdat_epa main 1683 1597 O_________P___ hurdat_epa EP071982 16.5000 -139.200 HU 95 2 16.4123 -139.147 4 90 17 285
1982207N09243 1982 52 EP CP GILMA 1982-07-30 09:00:00 TS 16.6585 -140.021 main 1594 1509 P_________P___ EP071982 16.6719 -140.028 HU 85 2 16.6185 -140.000 4 82 17 281
1982207N09243 1982 52 EP CP GILMA 1982-07-30 12:00:00 TS 16.8000 -140.900 75 hurdat_epa main 1499 1403 O_________O___ hurdat_epa EP071982 16.8000 -140.900 HU 75 1 16.8000 -140.900 4 75 18 278
1982207N09243 1982 52 EP CP GILMA 1982-07-30 15:00:00 TS 16.9112 -141.874 main 1393 1297 P_________P___ EP071982 16.9072 -141.870 HU 67 1 16.9285 -141.880 4 68 19 276
1982207N09243 1982 52 EP CP GILMA 1982-07-30 18:00:00 TS 17.0062 -142.901 60 hurdat_epa main 1287 1181 O_________P___ hurdat_epa EP071982 17.0000 -142.900 TS 60 0 17.0296 -142.906 4 62 20 276
1982207N09243 1982 52 EP CP GILMA 1982-07-30 21:00:00 TS 17.1029 -143.951 main 1171 1075 P_________P___ EP071982 17.0997 -143.950 TS 55 0 17.1158 -143.955 4 56 20 276
1982207N09243 1982 52 EP CP GILMA 1982-07-31 00:00:00 TS 17.2000 -145.000 50 hurdat_epa main 1065 960 O_________O___ hurdat_epa EP071982 17.2000 -145.000 TS 50 0 17.2000 -145.000 2 50 20 276
1982207N09243 1982 52 EP CP GILMA 1982-07-31 03:00:00 TS 17.3010 -146.014 main 960 855 P_________P___ EP071982 17.2994 -146.008 TS 45 0 17.3075 -146.039 2 46 19 276
1982207N09243 1982 52 EP CP GILMA 1982-07-31 06:00:00 TS 17.4029 -147.013 40 hurdat_epa main 855 751 O_________P___ hurdat_epa EP071982 17.4000 -147.000 TS 40 0 17.4144 -147.067 2 42 19 276
1982207N09243 1982 52 EP CP GILMA 1982-07-31 09:00:00 TS 17.5087 -148.036 main 751 647 P_________P___ EP071982 17.5074 -148.030 TS 37 0 17.5140 -148.061 2 38 19 276
1982207N09243 1982 52 EP CP GILMA 1982-07-31 12:00:00 TS 17.6000 -149.000 35 hurdat_epa main 647 564 O_________O___ hurdat_epa EP071982 17.6000 -149.000 TS 35 0 17.6000 -149.000 2 35 17 275
1982207N09243 1982 52 EP CP GILMA 1982-07-31 15:00:00 TS 17.6560 -149.828 main 564 486 P_________P___ EP071982 17.6568 -149.830 TS 35 0 17.6528 -149.818 2 35 15 274
1982207N09243 1982 52 EP CP GILMA 1982-07-31 18:00:00 TS 17.6990 -150.597 35 hurdat_epa main 486 420 O_________P___ hurdat_epa EP071982 17.7000 -150.600 TS 35 0 17.6951 -150.586 2 35 15 273
1982207N09243 1982 52 EP CP GILMA 1982-07-31 21:00:00 TS 17.7415 -151.369 main 411 333 P_________P___ EP071982 17.7418 -151.370 TS 35 0 17.7402 -151.362 2 35 15 274
1982207N09243 1982 52 EP CP GILMA 1982-08-01 00:00:00 TS 17.8000 -152.200 35 hurdat_epa main 333 253 O_________O___ hurdat_epa EP071982 17.8000 -152.200 TS 35 0 17.8000 -152.200 2 35 17 275
1982207N09243 1982 52 EP CP GILMA 1982-08-01 03:00:00 TS 17.8920 -153.168 main 245 168 P_________P___ EP071982 17.8922 -153.155 TS 35 0 17.8913 -153.222 2 33 19 276
1982207N09243 1982 52 EP CP GILMA 1982-08-01 06:00:00 TS 17.9990 -154.221 35 hurdat_epa main 168 98 O_________P___ hurdat_epa EP071982 18.0000 -154.200 TS 35 0 17.9949 -154.307 2 32 21 276
1982207N09243 1982 52 EP CP GILMA 1982-08-01 09:00:00 TS 18.1000 -155.318 main 98 81 P_________P___ EP071982 18.0999 -155.300 TS 32 -1 18.1007 -155.388 2 31 21 276
1982207N09243 1982 52 EP CP GILMA 1982-08-01 12:00:00 TS 18.2000 -156.400 30 hurdat_epa main 107 107 O_________O___ hurdat_epa EP071982 18.2000 -156.400 TD 30 -1 18.2000 -156.400 1 30 20 276
1982207N09243 1982 52 EP CP GILMA 1982-08-01 15:00:00 TS 18.3034 -157.436 main 181 181 P_________P___ EP071982 18.3076 -157.482 TD 27 -1 18.2872 -157.293 1 27 19 276
1982207N09243 1982 52 EP CP GILMA 1982-08-01 18:00:00 TS 18.3929 -158.337 25 hurdat_epa main 264 264 O_________P___ hurdat_epa EP071982 18.4000 -158.400 TD 25 -1 18.3643 -158.085 1 25 15 276
1982207N09243 1982 52 EP CP GILMA 1982-08-01 21:00:00 TS 18.4549 -159.038 main 327 327 P_________P___ EP071982 18.4598 -159.035 TD 22 -1 18.4344 -158.809 1 22 12 275
1982207N09243 1982 52 EP CP GILMA 1982-08-02 00:00:00 TS 18.5000 -159.620 20 hurdat_epa main 350 O_________O___ hurdat_epa EP071982 18.5000 -159.500 TD 20 -1 18.5000 -159.500 1 20 11 275

About IBTrACS Database

This database is a web-friendly format of International Best Track Archive for Climate Stewardship (IBTrACS), a global best track data archive curated by NOAA dating back to 1842.

Updated: 2021-10-08